Hauptseite
METAR-TAF:

METAR-TAF

Flughäfen :

Humberside Airport

Humberside, England

Breite: 53-35N, Länge: 000-21W, Höhe: 31 m

Beobachtung

Neuester Wetterbericht von vor 39 Minuten, um 11:20 UTC
Wind 23 kt aus Süd/Südwest
Temperatur 13°C
Luftfeuchtigkeit 82%
Luftdruck 1017 hPa
Sichtweite 10 km oder mehr
Leicht bewölkt in der Höhe von 2000 ft

METAR: EGNJ 141120Z 21023KT 9999 FEW020 13/10 Q1017

Zeit: 11:59 (11:59 UTC)

Prognose

Neuester Wetterbericht von vor 1 Stunde und 0 Minuten, um 10:59 UTC
Gültige Prognose vom 14 um 12 UTC bis 14 um 21 UTC
Wind 18 kt aus Süd/Südwest
Sichtweite 10 km oder mehr
Aufgelockert bewölkt in der Höhe von 2500 ft
Zeitweise
vom 14 um 12 UTC bis 14 um 17 UTC
Wind 22 kt aus Südwest, Böen bis zu 32 kt

TAF: EGNJ 141059Z 1412/1421 21018KT 9999 SCT025 TEMPO 1412/1417 22022G32KT

Wetterbeobachtungen und Prognosen von mehr als 4000 Flughäfen (METAR und TAF Bericht).

Die verfügbaren Stationen werden durch gelbe und rote Markierungen auf der Karte dargestellt.

Führen Sie die Maus auf sie, um den Namen der Station zu sehen.

Darauf klicken, um die Beobachtung von Wetterbeobachtungen und Prognosen zu sehen.

Um die Karte zu ändern : klicken Sie auf den grünen Tasten mit einem schwarzen Kreuz Zum Vergrößern, auf den grünen Button mit einem Gedankenstrich zu verkleinern, oder auf die grünen Pfeile für benachbarte Karten.


METAR-TAF: